Terminal Aerodrome Forecast
Issued by NWS

Current Version | Previous Version | Text Only | Print | Product List | Glossary Off
Versions: 1 2 3 4 5 6 7 8 9 10 11 12 13 14 15 16

119
FTUS41 KPBZ 191720
TAFHLG
TAF
KHLG 191720Z 1918/2018 24008KT P6SM SCT035
     FM192000 25010KT P6SM VCTS BKN040CB
      TEMPO 1920/1923 5SM -TSRA BKN035CB
     FM200000 28005KT P6SM SCT040
     FM200900 00000KT 2SM BR SCT008
     FM201400 VRB04KT P6SM SKC=

USA.gov is the U.S. government's official web portal to all federal, state and local government web resources and services.